Time;durP1;ratioP1;P1;durP2;ratioP2;P2;SDS_P1;SDS_P2;PMS_P1;PMS_P2;Temp;Humidity;BMP_temperature;BMP_pressure;BME280_temperature;BME280_humidity;BME280_pressure;Samples;Min_cycle;Max_cycle;Signal;HPM_P1;HPM_P2
2023/05/15 00:01:31;;;;;;;12.48;10.27;;;11.80;99.90;;;11.19;100.00;101602.81;4121177;28;20066;-73
2023/05/15 00:03:32;;;;;;;16.80;12.02;;;11.80;99.90;;;11.16;100.00;101603.06;4121066;28;20431;-73
2023/05/15 00:05:33;;;;;;;14.65;11.48;;;11.80;99.90;;;11.20;100.00;101603.63;4121107;28;20023;-73
2023/05/15 00:07:35;;;;;;;17.83;13.48;;;11.80;99.90;;;11.18;100.00;101598.47;4121179;28;20089;-73
2023/05/15 00:09:36;;;;;;;15.07;12.00;;;11.90;99.90;;;11.25;100.00;101598.75;4136008;28;20576;-73
2023/05/15 00:11:37;;;;;;;14.40;11.38;;;11.90;99.90;;;11.28;100.00;101601.97;4120965;28;20402;-73
2023/05/15 00:13:38;;;;;;;18.85;13.20;;;11.90;99.90;;;11.31;100.00;101592.94;4121125;28;20034;-73
2023/05/15 00:15:38;;;;;;;17.35;13.23;;;11.90;99.90;;;11.33;100.00;101593.59;4120753;28;20439;-73
2023/05/15 00:17:39;;;;;;;19.30;13.23;;;12.00;99.90;;;11.35;100.00;101591.69;4119891;28;20058;-73
2023/05/15 00:19:40;;;;;;;17.48;13.52;;;12.00;99.90;;;11.35;100.00;101591.69;4119694;28;20109;-73
2023/05/15 00:21:41;;;;;;;14.02;11.60;;;12.00;99.90;;;11.34;100.00;101590.00;4121036;28;20050;-73
2023/05/15 00:23:42;;;;;;;16.67;13.38;;;12.00;99.90;;;11.25;100.00;101580.28;4120937;28;20103;-73
2023/05/15 00:25:43;;;;;;;17.90;13.18;;;12.00;99.90;;;11.24;100.00;101587.34;4103598;28;20052;-73
2023/05/15 00:27:45;;;;;;;16.75;11.77;;;11.90;99.90;;;11.26;100.00;101587.22;4135583;28;20042;-73
2023/05/15 00:29:46;;;;;;;18.42;14.05;;;11.90;99.90;;;11.21;100.00;101578.88;4120678;28;20046;-73
2023/05/15 00:31:47;;;;;;;17.52;13.50;;;11.90;99.90;;;11.22;100.00;101586.69;4119217;28;20027;-73
2023/05/15 00:33:47;;;;;;;17.83;13.48;;;11.90;99.90;;;11.19;100.00;101592.22;4115792;28;20486;-73
2023/05/15 00:35:48;;;;;;;14.52;11.93;;;11.80;99.90;;;11.15;100.00;101580.28;4120488;28;20046;-73
2023/05/15 00:37:49;;;;;;;18.17;12.57;;;11.80;99.90;;;11.14;100.00;101581.22;4120878;28;20035;-73
2023/05/15 00:39:50;;;;;;;21.30;14.07;;;11.80;99.90;;;11.08;100.00;101574.72;4120271;28;20034;-73
2023/05/15 00:41:52;;;;;;;19.00;12.63;;;11.70;99.90;;;11.07;100.00;101578.34;4119564;28;20021;-73
2023/05/15 00:43:54;;;;;;;21.25;14.00;;;11.70;99.90;;;11.01;100.00;101573.63;4103336;28;20503;-73
2023/05/15 00:45:58;;;;;;;17.70;12.57;;;11.70;99.90;;;11.03;100.00;101576.94;4123501;28;20149;-73
2023/05/15 00:48:00;;;;;;;19.20;13.20;;;11.70;99.90;;;11.00;100.00;101571.94;4135504;28;20480;-73
2023/05/15 00:50:01;;;;;;;18.08;13.93;;;11.70;99.90;;;10.99;100.00;101575.53;4135423;28;20030;-73
2023/05/15 00:52:07;;;;;;;18.38;14.10;;;11.70;99.90;;;10.95;100.00;101560.97;4135297;28;20062;-73
2023/05/15 00:54:08;;;;;;;17.63;13.73;;;11.60;99.90;;;10.95;100.00;101562.78;4135151;28;20022;-73
2023/05/15 00:56:11;;;;;;;17.48;13.35;;;11.60;99.90;;;10.93;100.00;101568.16;4135315;28;20113;-73
2023/05/15 00:58:14;;;;;;;15.63;13.13;;;11.60;99.90;;;10.90;100.00;101562.34;4120366;28;20029;-73
2023/05/15 01:00:17;;;;;;;18.58;12.88;;;11.60;99.90;;;10.83;100.00;101558.59;4118732;28;20022;-72
2023/05/15 01:02:18;;;;;;;19.83;12.57;;;11.50;99.90;;;10.77;100.00;101552.06;4119104;28;20117;-73
2023/05/15 01:04:19;;;;;;;16.20;12.23;;;11.50;99.90;;;10.78;100.00;101553.72;4119065;28;20518;-73
2023/05/15 01:06:20;;;;;;;16.85;13.30;;;11.50;99.90;;;10.75;100.00;101561.91;4119132;28;20122;-72
2023/05/15 01:08:44;;;;;;;18.40;12.38;;;11.40;99.90;;;10.65;100.00;101550.50;4120132;28;20491;-73
2023/05/15 01:10:48;;;;;;;18.55;13.13;;;11.40;99.90;;;10.65;100.00;101554.97;4119182;28;20034;-73
2023/05/15 01:12:52;;;;;;;18.92;13.48;;;11.30;99.90;;;10.64;100.00;101558.56;4119009;28;20035;-73
2023/05/15 01:14:55;;;;;;;16.90;13.77;;;11.30;99.90;;;10.60;100.00;101558.00;4102944;28;20510;-73
2023/05/15 01:16:56;;;;;;;18.63;13.13;;;11.30;99.90;;;10.53;100.00;101543.69;4119075;28;20060;-73
2023/05/15 01:18:57;;;;;;;18.98;13.57;;;11.30;99.90;;;10.55;100.00;101554.94;4119142;28;20022;-72
2023/05/15 01:21:01;;;;;;;16.75;12.38;;;11.30;99.90;;;10.57;100.00;101558.28;4120455;28;20031;-72
2023/05/15 01:23:22;;;;;;;15.88;12.60;;;11.20;99.90;;;10.56;100.00;101551.34;4120049;28;20356;-73
2023/05/15 01:25:34;;;;;;;18.60;12.90;;;11.20;99.90;;;10.53;100.00;101562.16;4119098;28;20031;-72
2023/05/15 01:27:59;;;;;;;18.02;13.50;;;11.20;99.90;;;10.42;100.00;101539.34;4120164;28;20027;-73
2023/05/15 01:30:20;;;;;;;16.67;13.68;;;11.20;99.90;;;10.50;100.00;101551.88;4134586;28;20033;-72
2023/05/15 01:32:51;;;;;;;17.88;13.73;;;11.10;99.90;;;10.45;100.00;101554.09;4118919;28;20110;-73
2023/05/15 01:35:07;;;;;;;18.10;13.07;;;11.10;99.90;;;10.45;100.00;101554.09;4119726;28;20098;-73
2023/05/15 01:37:10;;;;;;;17.98;13.68;;;11.10;99.90;;;10.41;100.00;101539.50;4119949;28;20031;-73
2023/05/15 01:39:14;;;;;;;17.65;13.23;;;11.10;99.90;;;10.44;100.00;101544.50;4118672;28;20027;-73
2023/05/15 01:41:18;;;;;;;15.95;12.32;;;11.10;99.90;;;10.42;100.00;101543.81;4118978;28;20018;-72
2023/05/15 01:43:25;;;;;;;17.88;13.35;;;11.20;99.90;;;10.49;100.00;101543.13;4118741;28;20081;-73
2023/05/15 01:45:29;;;;;;;17.30;12.35;;;11.10;99.90;;;10.50;100.00;101531.63;4118424;28;20173;-72
2023/05/15 01:47:42;;;;;;;21.58;12.10;;;11.20;99.90;;;10.51;100.00;101527.19;4118481;28;20033;-73
2023/05/15 01:49:45;;;;;;;15.02;12.50;;;11.20;99.90;;;10.53;100.00;101519.94;4103096;28;20388;-72
2023/05/15 01:51:51;;;;;;;17.60;12.98;;;11.20;99.90;;;10.53;100.00;101527.88;4135601;28;20030;-73
2023/05/15 01:53:55;;;;;;;17.48;12.40;;;11.20;99.90;;;10.58;100.00;101533.56;4121905;28;20534;-72
2023/05/15 01:55:56;;;;;;;19.00;13.15;;;11.30;99.90;;;10.59;100.00;101524.69;4122081;28;20058;-73
2023/05/15 01:58:00;;;;;;;19.25;12.73;;;11.20;99.90;;;10.63;100.00;101523.44;4122005;28;20046;-73
2023/05/15 02:00:02;;;;;;;15.57;12.23;;;11.30;99.90;;;10.65;100.00;101526.78;4121726;28;20038;-73
2023/05/15 02:02:04;;;;;;;18.35;14.07;;;11.30;99.90;;;10.64;100.00;101516.34;4121706;28;20357;-73
2023/05/15 02:04:07;;;;;;;14.95;11.77;;;11.30;99.90;;;10.66;100.00;101520.53;4123182;28;20033;-73
2023/05/15 02:06:08;;;;;;;16.52;13.05;;;11.30;99.90;;;10.60;100.00;101505.25;4121681;28;20053;-73
2023/05/15 02:08:11;;;;;;;19.85;13.10;;;11.30;99.90;;;10.65;100.00;101518.00;4121716;28;20414;-72
2023/05/15 02:10:12;;;;;;;18.73;13.02;;;11.30;99.90;;;10.60;100.00;101505.25;4123036;28;20114;-72
2023/05/15 02:12:14;;;;;;;15.88;12.73;;;11.30;99.90;;;10.63;100.00;101504.97;4121782;28;20030;-73
2023/05/15 02:14:16;;;;;;;19.90;12.73;;;11.30;99.90;;;10.61;100.00;101509.53;4121437;28;20038;-73
2023/05/15 02:16:17;;;;;;;15.25;11.55;;;11.30;99.90;;;10.62;100.00;101516.50;4121538;28;20514;-73
2023/05/15 02:18:18;;;;;;;14.05;11.30;;;11.30;99.90;;;10.59;100.00;101522.03;4121729;28;20030;-73
2023/05/15 02:20:19;;;;;;;13.90;11.60;;;11.30;99.90;;;10.53;100.00;101518.16;4137730;28;20504;-73
2023/05/15 02:22:20;;;;;;;16.70;12.57;;;11.30;99.90;;;10.55;100.00;101526.75;4121585;28;20023;-73
2023/05/15 02:24:20;;;;;;;16.92;13.20;;;11.20;99.90;;;10.53;100.00;101531.34;4122687;28;20026;-73
2023/05/15 02:26:59;;;;;;;18.95;12.40;;;11.20;99.90;;;10.49;100.00;101524.66;4122728;28;20042;-73
2023/05/15 02:29:25;;;;;;;19.95;14.55;;;11.20;99.90;;;10.41;100.00;101519.25;4120182;28;20042;-72
2023/05/15 02:31:39;;;;;;;18.58;12.98;;;11.10;99.90;;;10.39;100.00;101523.78;4121585;28;20058;-72
2023/05/15 02:34:02;;;;;;;14.13;11.50;;;11.10;99.90;;;10.48;100.00;101532.72;4121583;28;20382;-72
2023/05/15 02:36:10;;;;;;;16.33;12.23;;;11.10;99.90;;;10.42;100.00;101522.72;4121308;28;20046;-72
2023/05/15 02:38:18;;;;;;;17.00;12.50;;;11.10;99.90;;;10.49;100.00;101535.22;4121679;28;20121;-73
2023/05/15 02:40:22;;;;;;;18.73;13.43;;;11.10;99.90;;;10.46;100.00;101527.56;4121407;28;20046;-72
2023/05/15 02:42:23;;;;;;;19.17;13.55;;;11.10;99.90;;;10.44;100.00;101518.13;4121334;28;20019;-73
2023/05/15 02:44:25;;;;;;;20.88;13.43;;;11.10;99.90;;;10.46;100.00;101522.28;4120560;28;20550;-73
2023/05/15 02:46:27;;;;;;;17.45;14.60;;;11.10;99.90;;;10.43;100.00;101517.28;4120322;28;20053;-72
2023/05/15 02:48:28;;;;;;;17.83;14.63;;;11.10;99.90;;;10.47;100.00;101523.13;4120336;28;20034;-72
2023/05/15 02:50:29;;;;;;;20.30;13.48;;;11.10;99.90;;;10.46;100.00;101521.44;4120123;28;20035;-73
2023/05/15 02:52:32;;;;;;;18.33;14.07;;;11.10;99.90;;;10.46;100.00;101518.81;4104068;28;20038;-72
2023/05/15 02:54:33;;;;;;;17.58;14.40;;;11.10;99.90;;;10.45;100.00;101517.16;4104083;28;20019;-72
2023/05/15 02:56:34;;;;;;;15.40;11.88;;;11.10;99.90;;;10.46;100.00;101530.22;4120174;28;20502;-73
2023/05/15 02:58:36;;;;;;;20.00;13.63;;;11.10;99.90;;;10.44;100.00;101526.03;4136240;28;20027;-72
2023/05/15 03:00:37;;;;;;;17.13;12.70;;;11.10;99.90;;;10.41;100.00;101527.16;4136026;28;20113;-73
2023/05/15 03:02:38;;;;;;;19.10;14.45;;;11.10;99.90;;;10.39;100.00;101520.34;4119610;28;20083;-73
2023/05/15 03:04:39;;;;;;;22.20;16.65;;;11.10;99.90;;;10.36;100.00;101517.97;4119922;28;20038;-73
2023/05/15 03:06:40;;;;;;;20.90;14.77;;;11.10;99.90;;;10.37;100.00;101525.75;4103860;28;20027;-73
2023/05/15 03:08:40;;;;;;;17.95;13.88;;;11.00;99.90;;;10.32;100.00;101517.41;4109644;28;20038;-72
2023/05/15 03:10:41;;;;;;;20.15;14.32;;;11.00;99.90;;;10.32;100.00;101527.13;4120030;28;20077;-73
2023/05/15 03:12:42;;;;;;;20.52;15.00;;;11.00;99.90;;;10.31;100.00;101525.44;4120018;28;20034;-73
2023/05/15 03:14:43;;;;;;;19.55;15.50;;;10.90;99.90;;;10.25;100.00;101520.72;4120702;28;20050;-72
2023/05/15 03:16:44;;;;;;;22.30;14.25;;;10.90;99.90;;;10.26;100.00;101514.47;4119897;28;20043;-72
2023/05/15 03:18:45;;;;;;;21.70;15.88;;;10.90;99.90;;;10.22;100.00;101516.53;4121045;28;20031;-73
2023/05/15 03:20:48;;;;;;;20.50;14.60;;;10.90;99.90;;;10.20;100.00;101518.50;4119820;28;20029;-72
2023/05/15 03:22:48;;;;;;;22.08;15.98;;;10.80;99.90;;;10.19;100.00;101508.06;4119714;28;20015;-73
2023/05/15 03:24:49;;;;;;;20.00;15.68;;;10.80;99.90;;;10.16;100.00;101506.53;4120889;28;20407;-72
2023/05/15 03:26:50;;;;;;;22.63;16.25;;;10.80;99.90;;;10.14;100.00;101510.28;4120986;28;20031;-72
2023/05/15 03:28:51;;;;;;;21.40;16.35;;;10.80;99.90;;;10.12;100.00;101499.84;4120972;28;20042;-73
2023/05/15 03:30:52;;;;;;;24.10;17.08;;;10.80;99.90;;;10.12;100.00;101499.84;4119042;28;20453;-72
2023/05/15 03:32:53;;;;;;;19.90;15.38;;;10.70;99.90;;;10.11;100.00;101498.16;4119783;28;20034;-72
2023/05/15 03:34:54;;;;;;;27.55;18.02;;;10.70;99.90;;;10.11;100.00;101489.44;4120774;28;20434;-72
2023/05/15 03:36:55;;;;;;;24.65;16.73;;;10.70;99.90;;;10.03;100.00;101488.28;4120726;28;20031;-72
2023/05/15 03:38:56;;;;;;;22.70;16.52;;;10.70;99.90;;;10.03;100.00;101490.91;4120867;28;20027;-73
2023/05/15 03:40:57;;;;;;;22.27;16.40;;;10.70;99.90;;;10.02;100.00;101494.53;4119607;28;20554;-72
2023/05/15 03:42:57;;;;;;;21.95;15.88;;;10.70;99.90;;;10.00;100.00;101493.81;4119684;28;20392;-72
2023/05/15 03:44:59;;;;;;;20.65;15.45;;;10.70;99.90;;;10.01;100.00;101492.03;4080075;28;1183287;-73
2023/05/15 03:46:59;;;;;;;20.67;15.32;;;10.70;99.90;;;9.95;100.00;101487.28;4121518;28;20030;-72
2023/05/15 03:49:00;;;;;;;20.73;14.98;;;10.70;99.90;;;9.95;100.00;101487.28;4121348;28;20042;-72
2023/05/15 03:51:01;;;;;;;18.33;14.35;;;10.70;99.90;;;9.98;100.00;101498.41;4120350;28;20491;-73
2023/05/15 03:53:02;;;;;;;17.45;13.90;;;10.70;99.90;;;9.99;100.00;101497.44;4121529;28;20038;-72
2023/05/15 03:55:04;;;;;;;17.60;13.50;;;10.70;99.90;;;10.07;100.00;101495.91;4136161;28;20030;-72
2023/05/15 03:57:06;;;;;;;19.58;15.30;;;10.70;99.90;;;10.08;100.00;101493.16;4119885;28;20085;-73
2023/05/15 03:59:07;;;;;;;24.23;16.25;;;10.70;99.90;;;10.15;100.00;101502.25;4121146;28;20078;-72
2023/05/15 04:01:08;;;;;;;21.25;14.60;;;10.80;99.90;;;10.17;100.00;101496.81;4136249;28;20033;-73
2023/05/15 04:03:09;;;;;;;18.55;14.80;;;10.80;99.90;;;10.17;100.00;101491.56;4103682;29;20023;-72
2023/05/15 04:05:10;;;;;;;18.83;12.93;;;10.80;99.90;;;10.24;100.00;101500.59;4120765;28;20019;-73
2023/05/15 04:07:11;;;;;;;19.23;15.38;;;10.90;99.90;;;10.23;100.00;101497.13;4121285;28;20390;-73
2023/05/15 04:09:12;;;;;;;22.05;14.98;;;10.90;99.90;;;10.24;100.00;101497.97;4121167;28;20038;-73
2023/05/15 04:11:12;;;;;;;19.55;14.90;;;10.90;99.90;;;10.25;100.00;101500.44;4120015;28;20023;-72
2023/05/15 04:13:13;;;;;;;20.80;14.95;;;10.90;99.90;;;10.26;100.00;101493.38;4120683;28;20038;-72
2023/05/15 04:15:15;;;;;;;21.10;14.88;;;10.90;99.90;;;10.25;100.00;101489.91;4120274;28;20031;-72
2023/05/15 04:17:16;;;;;;;19.10;14.95;;;10.90;99.90;;;10.20;100.00;101492.13;4120815;28;20037;-72
2023/05/15 04:19:17;;;;;;;17.90;14.25;;;10.90;99.90;;;10.22;100.00;101491.97;4121109;28;20023;-72
2023/05/15 04:21:18;;;;;;;28.25;15.20;;;10.90;99.90;;;10.23;100.00;101485.75;4119619;28;20094;-73
2023/05/15 04:23:19;;;;;;;16.85;13.82;;;10.90;99.90;;;10.24;100.00;101492.69;4119821;28;20065;-73
2023/05/15 04:25:20;;;;;;;19.15;14.45;;;10.90;99.90;;;10.24;100.00;101492.69;4120895;28;20026;-72
2023/05/15 04:27:21;;;;;;;18.10;13.45;;;10.90;99.90;;;10.23;100.00;101493.66;4120860;28;20041;-72
2023/05/15 04:29:22;;;;;;;18.58;13.98;;;10.90;99.90;;;10.22;100.00;101497.25;4119337;28;20034;-72
2023/05/15 04:31:23;;;;;;;20.20;14.13;;;10.90;99.90;;;10.22;100.00;101491.97;4121109;28;20027;-72
2023/05/15 04:33:24;;;;;;;20.52;13.18;;;10.90;99.90;;;10.24;100.00;101497.97;4119680;28;20093;-73
2023/05/15 04:35:25;;;;;;;16.95;13.70;;;10.90;99.90;;;10.24;100.00;101487.41;4119426;28;20022;-72
2023/05/15 04:37:27;;;;;;;19.42;14.00;;;10.90;99.90;;;10.26;100.00;101488.94;4120639;28;20070;-72
2023/05/15 04:39:28;;;;;;;17.45;12.93;;;10.90;99.90;;;10.32;100.00;101495.47;4119487;28;20519;-72
2023/05/15 04:41:29;;;;;;;17.85;13.45;;;11.00;99.90;;;10.35;100.00;101500.47;4120766;28;20094;-72
2023/05/15 04:43:30;;;;;;;17.35;14.15;;;11.00;99.90;;;10.38;100.00;101494.94;4119312;28;20026;-72
2023/05/15 04:45:31;;;;;;;16.58;12.52;;;11.00;99.90;;;10.33;100.00;101484.81;4119020;28;20146;-72
2023/05/15 04:47:32;;;;;;;16.88;12.52;;;11.00;99.90;;;10.42;100.00;101486.59;4119523;28;20030;-72
2023/05/15 04:49:33;;;;;;;16.00;12.77;;;11.10;99.90;;;10.46;100.00;101488.00;4120839;28;20037;-72
2023/05/15 04:51:34;;;;;;;14.15;11.70;;;11.10;99.90;;;10.54;100.00;101480.22;4119353;28;20031;-72
2023/05/15 04:53:35;;;;;;;18.08;13.45;;;11.20;99.90;;;10.61;100.00;101482.31;4119320;28;20178;-72
2023/05/15 04:55:36;;;;;;;17.42;11.82;;;11.20;99.90;;;10.66;100.00;101483.59;4119239;28;20038;-73
2023/05/15 04:57:36;;;;;;;16.88;12.38;;;11.30;99.90;;;10.75;100.00;101482.72;4103230;29;20031;-72
2023/05/15 04:59:37;;;;;;;15.98;12.20;;;11.40;99.90;;;10.79;100.00;101480.66;4119189;28;20387;-72
2023/05/15 05:01:38;;;;;;;16.75;11.43;;;11.40;99.90;;;10.81;100.00;101471.63;4119227;28;20034;-72
2023/05/15 05:03:39;;;;;;;15.88;12.38;;;11.50;99.90;;;10.91;100.00;101483.03;4119284;28;20019;-72
2023/05/15 05:05:40;;;;;;;14.90;11.90;;;11.50;99.90;;;10.93;100.00;101482.91;4120093;28;20022;-72
2023/05/15 05:07:43;;;;;;;16.10;11.60;;;11.60;99.90;;;10.96;100.00;101480.78;4119270;28;20431;-72
2023/05/15 05:09:44;;;;;;;14.90;11.07;;;11.60;99.90;;;11.00;100.00;101471.63;4120290;28;20030;-73
2023/05/15 05:11:46;;;;;;;14.02;11.55;;;11.70;99.90;;;11.05;100.00;101482.56;4119154;28;20033;-73
2023/05/15 05:13:48;;;;;;;14.95;12.32;;;11.70;99.90;;;11.06;100.00;101471.06;4119164;28;20027;-72
2023/05/15 05:15:49;;;;;;;13.30;11.10;;;11.70;99.90;;;11.17;100.00;101477.97;4118632;28;20037;-72
2023/05/15 05:17:51;;;;;;;13.48;11.10;;;11.80;99.90;;;11.23;100.00;101484.53;4102807;29;20027;-73
2023/05/15 05:19:52;;;;;;;12.18;9.80;;;11.80;99.90;;;11.28;100.00;101479.63;4119111;28;20023;-72
2023/05/15 05:21:54;;;;;;;12.82;10.40;;;11.90;99.90;;;11.36;100.00;101488.50;4135341;28;20038;-73
2023/05/15 05:23:55;;;;;;;13.05;9.95;;;11.90;99.90;;;11.40;100.00;101479.34;4120144;28;20030;-73
2023/05/15 05:25:56;;;;;;;14.10;11.15;;;12.00;99.90;;;11.47;100.00;101484.84;4118610;28;20035;-73
2023/05/15 05:27:57;;;;;;;13.60;10.82;;;12.00;99.90;;;11.52;100.00;101490.56;4120438;28;20034;-73
2023/05/15 05:29:58;;;;;;;10.93;9.40;;;12.10;99.90;;;11.57;100.00;101481.22;4118282;28;20482;-72
2023/05/15 05:31:59;;;;;;;15.00;11.52;;;12.20;99.90;;;11.55;100.00;101471.78;4120062;28;20034;-73
2023/05/15 05:33:59;;;;;;;14.90;11.05;;;12.20;99.90;;;11.57;100.00;101486.50;4120017;28;20034;-73
2023/05/15 05:36:00;;;;;;;15.23;10.98;;;12.20;99.90;;;11.65;100.00;101494.53;4118905;28;20585;-73
2023/05/15 05:38:01;;;;;;;14.52;11.85;;;12.30;99.90;;;11.60;100.00;101483.56;4119921;28;20434;-72
2023/05/15 05:40:04;;;;;;;14.50;11.68;;;12.30;99.90;;;11.69;100.00;101500.38;4118862;28;20022;-73
2023/05/15 05:42:05;;;;;;;13.45;11.10;;;12.30;99.90;;;11.74;100.00;101502.63;4119865;28;20027;-73
2023/05/15 05:44:06;;;;;;;16.50;12.32;;;12.40;99.90;;;11.70;100.00;101494.16;4119724;28;20378;-73
2023/05/15 05:46:07;;;;;;;16.80;11.52;;;12.40;99.90;;;11.74;100.00;101498.16;4120182;28;20120;-73
2023/05/15 05:48:08;;;;;;;13.23;10.65;;;12.40;99.90;;;11.77;100.00;101491.75;4119898;28;20510;-73
2023/05/15 05:50:09;;;;;;;13.45;11.05;;;12.40;99.90;;;11.89;100.00;101501.97;4102601;29;20031;-73
2023/05/15 05:52:10;;;;;;;15.68;11.15;;;12.50;99.90;;;11.96;100.00;101503.06;4118931;28;20023;-73
2023/05/15 05:54:11;;;;;;;12.55;10.82;;;12.60;99.90;;;12.07;100.00;101509.97;4118815;28;20030;-73
2023/05/15 05:56:12;;;;;;;13.57;10.25;;;12.60;99.90;;;12.02;100.00;101504.28;4119813;28;20034;-73
2023/05/15 05:58:14;;;;;;;13.50;9.90;;;12.70;99.90;;;12.07;100.00;101502.88;4118807;28;20030;-73
2023/05/15 06:00:15;;;;;;;12.55;10.10;;;12.70;99.90;;;12.15;100.00;101510.91;4121461;28;20584;-73
2023/05/15 06:02:16;;;;;;;12.45;9.90;;;12.80;99.90;;;12.13;100.00;101504.94;4134584;28;20022;-73
2023/05/15 06:04:18;;;;;;;10.50;9.40;;;12.80;99.90;;;12.28;100.00;101499.13;4134649;28;20766;-73
2023/05/15 06:06:19;;;;;;;10.98;9.52;;;12.90;99.90;;;12.44;100.00;101507.25;4134851;28;20558;-73
2023/05/15 06:08:20;;;;;;;10.82;8.20;;;12.90;99.90;;;12.56;100.00;101506.06;4118377;28;20037;-73
2023/05/15 06:10:21;;;;;;;13.80;9.73;;;13.10;99.90;;;12.58;100.00;101506.72;4134866;28;20124;-73
2023/05/15 06:12:22;;;;;;;12.38;8.70;;;13.10;99.90;;;12.56;100.00;101511.34;4119821;28;20061;-72
2023/05/15 06:14:23;;;;;;;10.60;8.65;;;13.20;99.90;;;12.57;100.00;101507.72;4134155;28;20030;-73
2023/05/15 06:16:24;;;;;;;11.52;8.65;;;13.20;99.90;;;12.55;100.00;101507.03;4119566;28;20110;-73
2023/05/15 06:18:25;;;;;;;10.25;8.40;;;13.20;99.90;;;12.61;100.00;101509.91;4134775;28;20030;-73
2023/05/15 06:20:26;;;;;;;10.55;7.90;;;13.20;99.90;;;12.51;100.00;101508.34;4119924;28;20482;-73
2023/05/15 06:22:27;;;;;;;10.75;7.43;;;13.20;99.90;;;12.51;100.00;101508.34;4119667;28;20034;-72
2023/05/15 06:24:27;;;;;;;11.30;8.27;;;13.20;99.90;;;12.51;100.00;101509.16;4134329;28;20081;-73
2023/05/15 06:26:29;;;;;;;11.15;8.55;;;13.20;99.90;;;12.45;100.00;101509.78;4119736;28;20038;-73
2023/05/15 06:28:30;;;;;;;8.55;7.55;;;13.20;99.90;;;12.50;100.00;101504.84;4119725;28;20090;-73
2023/05/15 06:30:31;;;;;;;10.48;7.82;;;13.20;99.90;;;12.59;100.00;101511.88;4134310;28;20066;-73
2023/05/15 06:32:32;;;;;;;11.07;8.05;;;13.20;99.90;;;12.59;100.00;101505.75;4119522;28;20101;-72
2023/05/15 06:34:33;;;;;;;10.23;8.18;;;13.20;99.90;;;12.64;100.00;101504.31;4134921;28;20062;-72
2023/05/15 06:36:34;;;;;;;9.35;8.05;;;13.30;99.90;;;12.68;100.00;101505.69;4134586;28;20157;-72
2023/05/15 06:38:35;;;;;;;10.93;8.98;;;13.30;99.90;;;12.74;100.00;101505.09;4121502;28;20093;-72
2023/05/15 06:40:36;;;;;;;8.93;8.02;;;13.40;99.90;;;12.84;100.00;101510.31;4122507;28;20023;-73
2023/05/15 06:42:37;;;;;;;8.63;7.07;;;13.40;99.90;;;12.88;100.00;101510.81;4122449;28;20565;-73
2023/05/15 06:44:37;;;;;;;9.57;7.88;;;13.50;99.90;;;12.96;100.00;101514.38;4122186;28;20047;-72
2023/05/15 06:46:38;;;;;;;8.48;7.43;;;13.50;99.90;;;12.98;100.00;101507.13;4121242;28;20035;-72
2023/05/15 06:48:39;;;;;;;9.68;7.53;;;13.60;99.90;;;12.91;100.00;101511.34;4122552;28;20030;-73
2023/05/15 06:50:40;;;;;;;8.68;7.70;;;13.60;99.90;;;12.93;100.00;101506.72;4122387;28;20034;-72
2023/05/15 06:52:41;;;;;;;9.07;7.68;;;13.60;99.90;;;13.01;100.00;101514.75;4137408;28;20030;-72
2023/05/15 06:54:42;;;;;;;9.68;7.07;;;13.60;99.90;;;13.08;100.00;101513.19;4122241;28;20019;-72
2023/05/15 06:56:43;;;;;;;10.55;7.85;;;13.60;99.90;;;13.06;100.00;101509.81;4122239;28;20034;-72
2023/05/15 06:58:44;;;;;;;11.30;8.07;;;13.70;99.90;;;12.96;100.00;101506.41;4136853;28;20029;-72
2023/05/15 07:00:45;;;;;;;11.50;8.13;;;13.70;99.90;;;13.09;100.00;101520.16;4121026;28;20089;-72
2023/05/15 07:02:46;;;;;;;8.80;7.20;;;13.70;99.90;;;13.10;100.00;101505.94;4122077;28;20030;-72
2023/05/15 07:04:47;;;;;;;9.68;7.05;;;13.70;99.90;;;13.16;100.00;101509.78;4137006;28;20076;-72
2023/05/15 07:06:47;;;;;;;9.40;6.80;;;13.80;99.90;;;13.26;100.00;101519.28;4120814;28;20038;-72
2023/05/15 07:08:48;;;;;;;8.32;6.80;;;13.80;99.90;;;13.29;100.00;101515.50;4122141;28;20398;-72
2023/05/15 07:10:50;;;;;;;11.77;7.80;;;13.90;99.90;;;13.38;100.00;101516.41;4121009;28;20022;-72
2023/05/15 07:12:51;;;;;;;8.32;7.43;;;13.90;99.90;;;13.42;100.00;101509.78;4125088;28;20593;-72
2023/05/15 07:14:52;;;;;;;7.47;6.35;;;14.00;99.90;;;13.53;100.00;101517.50;4136591;28;20031;-73
2023/05/15 07:16:53;;;;;;;11.40;7.97;;;14.10;99.90;;;13.45;100.00;101514.78;4122073;28;20054;-72
2023/05/15 07:18:54;;;;;;;10.77;8.32;;;14.10;99.90;;;13.48;100.00;101510.00;4137097;28;20409;-73
2023/05/15 07:20:55;;;;;;;9.68;7.97;;;14.20;99.90;;;13.51;100.00;101503.56;4121875;28;20042;-72
2023/05/15 07:22:55;;;;;;;10.13;7.57;;;14.20;99.90;;;13.66;100.00;101507.28;4136709;28;20034;-73
2023/05/15 07:24:56;;;;;;;8.73;6.72;;;14.30;99.90;;;13.86;100.00;101506.91;4122120;28;20023;-72
2023/05/15 07:26:58;;;;;;;8.77;6.97;;;14.40;99.90;;;14.08;100.00;101508.16;4136765;28;20078;-73
2023/05/15 07:28:59;;;;;;;10.00;8.20;;;14.50;99.90;;;14.12;100.00;101498.06;4121670;28;20038;-73
2023/05/15 07:31:00;;;;;;;9.32;7.57;;;14.70;99.90;;;14.15;100.00;101498.56;4136660;28;20065;-72
2023/05/15 07:33:02;;;;;;;9.63;7.22;;;14.70;99.90;;;14.09;100.00;101501.03;4122012;28;20058;-73
2023/05/15 07:35:04;;;;;;;9.32;7.25;;;14.80;99.90;;;14.03;100.00;101499.84;4136641;28;20030;-73
2023/05/15 07:37:05;;;;;;;10.52;7.25;;;14.80;99.90;;;14.01;100.00;101501.00;4121622;28;20034;-73
2023/05/15 07:39:06;;;;;;;11.02;8.15;;;14.80;99.90;;;14.05;100.00;101497.88;4136416;28;20085;-73
2023/05/15 07:41:06;;;;;;;10.68;7.20;;;14.80;99.90;;;14.07;100.00;101493.22;4120687;28;20037;-72
2023/05/15 07:43:08;;;;;;;10.55;7.50;;;14.70;99.90;;;14.00;100.00;101502.00;4136299;28;20490;-73
2023/05/15 07:45:09;;;;;;;9.75;7.00;;;14.70;99.90;;;14.29;100.00;101505.06;4121248;28;20047;-72
2023/05/15 07:47:10;;;;;;;9.43;7.00;;;14.80;99.90;;;14.31;100.00;101503.91;4136379;28;20026;-73
2023/05/15 07:49:11;;;;;;;9.15;7.18;;;14.90;99.90;;;14.38;100.00;101506.78;4120739;28;20027;-72
2023/05/15 07:51:11;;;;;;;8.15;6.57;;;15.00;99.90;;;14.55;100.00;101497.88;4121391;28;20058;-73
2023/05/15 07:53:15;;;;;;;8.65;6.50;;;15.10;99.90;;;14.85;100.00;101501.72;4121428;28;20038;-73
2023/05/15 07:55:16;;;;;;;8.55;7.47;;;15.30;99.90;;;15.03;100.00;101493.59;4136083;28;20117;-73
2023/05/15 07:57:17;;;;;;;8.07;7.10;;;15.60;99.90;;;15.07;100.00;101501.06;4107248;28;20054;-73
2023/05/15 07:59:18;;;;;;;8.23;6.63;;;15.70;99.90;;;14.97;100.00;101505.72;4121091;28;20050;-73
2023/05/15 08:01:19;;;;;;;7.80;5.65;;;15.80;99.90;;;15.35;100.00;101494.38;4121354;28;20015;-73
2023/05/15 08:03:20;;;;;;;11.15;5.97;;;15.90;99.90;;;15.23;100.00;101490.41;4121283;28;20034;-73
2023/05/15 08:05:20;;;;;;;8.30;6.22;;;16.10;99.90;;;15.56;100.00;101491.22;4121026;28;20446;-73
2023/05/15 08:07:21;;;;;;;5.03;4.50;;;16.10;99.90;;;16.10;100.00;101499.38;4136144;28;20038;-73
2023/05/15 08:09:22;;;;;;;7.03;4.93;;;16.40;99.90;;;16.45;100.00;101498.84;4121142;28;20494;-73
2023/05/15 08:11:23;;;;;;;8.93;5.40;;;16.80;99.90;;;16.54;100.00;101505.81;4119749;28;20031;-73
2023/05/15 08:13:24;;;;;;;5.80;4.78;;;17.10;99.90;;;16.80;100.00;101494.78;4121213;28;20034;-73
2023/05/15 08:15:25;;;;;;;4.25;3.80;;;17.30;99.90;;;16.99;100.00;101502.31;4120868;28;20094;-73